sensor_id;sensor_type;location;lat;lon;timestamp;temperature;humidity
19654;DHT22;9975;48.046;7.804;2023-05-19T01:56:42;11.90;97.50
19654;DHT22;9975;48.046;7.804;2023-05-19T02:02:01;12.00;98.70
19654;DHT22;9975;48.046;7.804;2023-05-19T02:05:12;12.00;99.20
19654;DHT22;9975;48.046;7.804;2023-05-19T02:07:46;12.00;99.30
19654;DHT22;9975;48.046;7.804;2023-05-19T02:10:21;12.00;99.90
19654;DHT22;9975;48.046;7.804;2023-05-19T02:12:52;11.90;99.90
19654;DHT22;9975;48.046;7.804;2023-05-19T02:15:24;11.90;99.90
19654;DHT22;9975;48.046;7.804;2023-05-19T02:17:52;11.90;99.90
19654;DHT22;9975;48.046;7.804;2023-05-19T02:20:19;11.90;99.60
19654;DHT22;9975;48.046;7.804;2023-05-19T02:22:47;11.80;99.90
19654;DHT22;9975;48.046;7.804;2023-05-19T02:25:13;11.90;99.90
19654;DHT22;9975;48.046;7.804;2023-05-19T02:27:40;11.90;99.90
19654;DHT22;9975;48.046;7.804;2023-05-19T02:30:06;11.90;99.90
19654;DHT22;9975;48.046;7.804;2023-05-19T02:32:32;11.90;99.90
19654;DHT22;9975;48.046;7.804;2023-05-19T02:34:58;11.90;99.90
19654;DHT22;9975;48.046;7.804;2023-05-19T02:37:24;11.90;99.90
19654;DHT22;9975;48.046;7.804;2023-05-19T02:39:53;11.90;99.90
19654;DHT22;9975;48.046;7.804;2023-05-19T02:42:19;11.80;99.70
19654;DHT22;9975;48.046;7.804;2023-05-19T02:44:44;11.80;99.60
19654;DHT22;9975;48.046;7.804;2023-05-19T02:47:10;11.70;99.30
19654;DHT22;9975;48.046;7.804;2023-05-19T02:49:36;11.60;99.10
19654;DHT22;9975;48.046;7.804;2023-05-19T02:52:05;11.50;99.90
19654;DHT22;9975;48.046;7.804;2023-05-19T02:54:32;11.40;99.90
19654;DHT22;9975;48.046;7.804;2023-05-19T02:56:58;11.40;99.50
19654;DHT22;9975;48.046;7.804;2023-05-19T02:59:23;11.30;99.90
19654;DHT22;9975;48.046;7.804;2023-05-19T03:01:58;11.30;99.90
19654;DHT22;9975;48.046;7.804;2023-05-19T03:04:23;11.30;99.20
19654;DHT22;9975;48.046;7.804;2023-05-19T03:06:49;11.30;99.20
19654;DHT22;9975;48.046;7.804;2023-05-19T03:09:15;11.20;99.60
19654;DHT22;9975;48.046;7.804;2023-05-19T03:11:40;11.20;99.30
19654;DHT22;9975;48.046;7.804;2023-05-19T03:14:06;11.10;99.30
19654;DHT22;9975;48.046;7.804;2023-05-19T03:16:36;11.10;99.30
19654;DHT22;9975;48.046;7.804;2023-05-19T03:19:01;11.10;99.20
19654;DHT22;9975;48.046;7.804;2023-05-19T03:21:27;11.10;99.10
19654;DHT22;9975;48.046;7.804;2023-05-19T03:23:53;11.00;98.90
19654;DHT22;9975;48.046;7.804;2023-05-19T03:26:21;11.00;98.80
19654;DHT22;9975;48.046;7.804;2023-05-19T03:28:47;10.90;98.60
19654;DHT22;9975;48.046;7.804;2023-05-19T03:31:13;10.80;98.90
19654;DHT22;9975;48.046;7.804;2023-05-19T03:33:38;10.90;98.80
19654;DHT22;9975;48.046;7.804;2023-05-19T03:36:04;10.80;98.80
19654;DHT22;9975;48.046;7.804;2023-05-19T03:38:30;10.80;98.80
19654;DHT22;9975;48.046;7.804;2023-05-19T03:40:55;10.70;99.10
19654;DHT22;9975;48.046;7.804;2023-05-19T03:43:21;10.70;99.40
19654;DHT22;9975;48.046;7.804;2023-05-19T03:45:47;10.70;99.60
19654;DHT22;9975;48.046;7.804;2023-05-19T03:48:12;10.60;99.10
19654;DHT22;9975;48.046;7.804;2023-05-19T03:50:40;10.60;99.50
19654;DHT22;9975;48.046;7.804;2023-05-19T03:53:06;10.60;99.50
19654;DHT22;9975;48.046;7.804;2023-05-19T03:55:32;10.50;99.70
19654;DHT22;9975;48.046;7.804;2023-05-19T03:57:58;10.50;99.80
19654;DHT22;9975;48.046;7.804;2023-05-19T04:00:24;10.50;99.90
19654;DHT22;9975;48.046;7.804;2023-05-19T04:02:49;10.40;99.90
19654;DHT22;9975;48.046;7.804;2023-05-19T04:05:15;10.40;99.90
19654;DHT22;9975;48.046;7.804;2023-05-19T04:07:41;10.40;99.90
19654;DHT22;9975;48.046;7.804;2023-05-19T04:10:07;10.40;99.90
19654;DHT22;9975;48.046;7.804;2023-05-19T04:12:33;10.30;99.90
19654;DHT22;9975;48.046;7.804;2023-05-19T04:14:59;10.30;99.90
19654;DHT22;9975;48.046;7.804;2023-05-19T04:17:25;10.30;99.90
19654;DHT22;9975;48.046;7.804;2023-05-19T04:19:52;10.40;99.90
19654;DHT22;9975;48.046;7.804;2023-05-19T04:22:18;10.40;99.90
19654;DHT22;9975;48.046;7.804;2023-05-19T04:24:44;10.30;99.90
19654;DHT22;9975;48.046;7.804;2023-05-19T04:27:10;10.20;99.90
19654;DHT22;9975;48.046;7.804;2023-05-19T04:29:37;10.20;99.90
19654;DHT22;9975;48.046;7.804;2023-05-19T04:32:04;10.20;99.90
19654;DHT22;9975;48.046;7.804;2023-05-19T04:34:35;9.80;99.90
19654;DHT22;9975;48.046;7.804;2023-05-19T04:37:05;10.20;99.90
19654;DHT22;9975;48.046;7.804;2023-05-19T04:39:31;10.10;99.90
19654;DHT22;9975;48.046;7.804;2023-05-19T04:41:57;10.10;99.90
19654;DHT22;9975;48.046;7.804;2023-05-19T04:44:24;10.20;99.90
19654;DHT22;9975;48.046;7.804;2023-05-19T04:46:50;10.10;99.90
19654;DHT22;9975;48.046;7.804;2023-05-19T04:49:18;10.10;99.90
19654;DHT22;9975;48.046;7.804;2023-05-19T04:51:45;10.20;99.90
19654;DHT22;9975;48.046;7.804;2023-05-19T04:54:14;10.20;99.90
19654;DHT22;9975;48.046;7.804;2023-05-19T04:56:40;10.10;99.90
19654;DHT22;9975;48.046;7.804;2023-05-19T04:59:06;10.10;99.90
19654;DHT22;9975;48.046;7.804;2023-05-19T05:01:32;10.20;99.90
19654;DHT22;9975;48.046;7.804;2023-05-19T05:03:58;10.20;99.90
19654;DHT22;9975;48.046;7.804;2023-05-19T05:06:23;10.20;99.90
19654;DHT22;9975;48.046;7.804;2023-05-19T05:08:50;10.30;99.90
19654;DHT22;9975;48.046;7.804;2023-05-19T05:11:16;10.20;99.90
19654;DHT22;9975;48.046;7.804;2023-05-19T05:13:42;10.20;99.90
19654;DHT22;9975;48.046;7.804;2023-05-19T05:16:08;10.30;99.90
19654;DHT22;9975;48.046;7.804;2023-05-19T05:18:34;10.30;99.90
19654;DHT22;9975;48.046;7.804;2023-05-19T05:21:03;10.50;99.90
19654;DHT22;9975;48.046;7.804;2023-05-19T05:23:29;10.50;99.90
19654;DHT22;9975;48.046;7.804;2023-05-19T05:25:55;10.60;99.90
19654;DHT22;9975;48.046;7.804;2023-05-19T05:28:21;10.60;99.90
19654;DHT22;9975;48.046;7.804;2023-05-19T05:30:46;10.70;99.90
19654;DHT22;9975;48.046;7.804;2023-05-19T05:33:13;10.80;99.90
19654;DHT22;9975;48.046;7.804;2023-05-19T05:35:39;10.80;99.90
19654;DHT22;9975;48.046;7.804;2023-05-19T05:38:05;10.90;99.90
19654;DHT22;9975;48.046;7.804;2023-05-19T05:40:30;11.00;99.90
19654;DHT22;9975;48.046;7.804;2023-05-19T05:42:56;11.10;99.90
19654;DHT22;9975;48.046;7.804;2023-05-19T05:45:24;11.10;99.90
19654;DHT22;9975;48.046;7.804;2023-05-19T05:47:50;11.10;99.90
19654;DHT22;9975;48.046;7.804;2023-05-19T05:50:16;11.10;99.90
19654;DHT22;9975;48.046;7.804;2023-05-19T05:52:45;11.20;99.90
19654;DHT22;9975;48.046;7.804;2023-05-19T05:55:12;11.20;99.90
19654;DHT22;9975;48.046;7.804;2023-05-19T05:57:37;11.20;99.90
19654;DHT22;9975;48.046;7.804;2023-05-19T06:00:06;11.20;99.90
19654;DHT22;9975;48.046;7.804;2023-05-19T06:02:44;11.20;99.90
19654;DHT22;9975;48.046;7.804;2023-05-19T06:05:13;11.20;99.90
19654;DHT22;9975;48.046;7.804;2023-05-19T06:07:39;11.30;99.90
19654;DHT22;9975;48.046;7.804;2023-05-19T06:10:06;11.30;99.90
19654;DHT22;9975;48.046;7.804;2023-05-19T06:12:32;11.30;99.90
19654;DHT22;9975;48.046;7.804;2023-05-19T06:14:58;11.40;99.90
19654;DHT22;9975;48.046;7.804;2023-05-19T06:17:24;11.50;99.90
19654;DHT22;9975;48.046;7.804;2023-05-19T06:19:49;11.60;99.90
19654;DHT22;9975;48.046;7.804;2023-05-19T06:22:15;11.70;99.90
19654;DHT22;9975;48.046;7.804;2023-05-19T06:24:41;11.80;99.90
19654;DHT22;9975;48.046;7.804;2023-05-19T06:27:06;11.70;99.90
19654;DHT22;9975;48.046;7.804;2023-05-19T06:29:32;11.70;99.90
19654;DHT22;9975;48.046;7.804;2023-05-19T06:31:58;11.70;99.90
19654;DHT22;9975;48.046;7.804;2023-05-19T06:34:24;11.60;99.90
19654;DHT22;9975;48.046;7.804;2023-05-19T06:36:49;11.80;99.90
19654;DHT22;9975;48.046;7.804;2023-05-19T06:39:15;11.90;99.90
19654;DHT22;9975;48.046;7.804;2023-05-19T06:41:40;11.80;99.90
19654;DHT22;9975;48.046;7.804;2023-05-19T06:44:06;11.90;99.90
19654;DHT22;9975;48.046;7.804;2023-05-19T06:46:33;11.80;99.90
19654;DHT22;9975;48.046;7.804;2023-05-19T06:48:59;12.00;99.90
19654;DHT22;9975;48.046;7.804;2023-05-19T06:51:25;12.10;99.90
19654;DHT22;9975;48.046;7.804;2023-05-19T06:53:51;12.30;99.90
19654;DHT22;9975;48.046;7.804;2023-05-19T06:56:16;12.30;99.50
19654;DHT22;9975;48.046;7.804;2023-05-19T06:58:43;12.40;99.90
19654;DHT22;9975;48.046;7.804;2023-05-19T07:01:09;12.50;99.70
19654;DHT22;9975;48.046;7.804;2023-05-19T07:03:35;12.50;99.10
19654;DHT22;9975;48.046;7.804;2023-05-19T07:06:01;12.50;99.00
19654;DHT22;9975;48.046;7.804;2023-05-19T07:08:27;12.70;99.30
19654;DHT22;9975;48.046;7.804;2023-05-19T07:10:52;12.90;98.30
19654;DHT22;9975;48.046;7.804;2023-05-19T07:13:19;13.00;98.10
19654;DHT22;9975;48.046;7.804;2023-05-19T07:15:45;13.10;97.30
19654;DHT22;9975;48.046;7.804;2023-05-19T07:18:13;13.20;96.50
19654;DHT22;9975;48.046;7.804;2023-05-19T07:20:39;13.20;96.80
19654;DHT22;9975;48.046;7.804;2023-05-19T07:23:04;13.30;96.70
19654;DHT22;9975;48.046;7.804;2023-05-19T07:25:30;13.30;96.50
19654;DHT22;9975;48.046;7.804;2023-05-19T07:27:56;13.50;96.60
19654;DHT22;9975;48.046;7.804;2023-05-19T07:30:21;13.60;96.90
19654;DHT22;9975;48.046;7.804;2023-05-19T07:32:47;13.80;96.50
19654;DHT22;9975;48.046;7.804;2023-05-19T07:35:13;14.00;96.30
19654;DHT22;9975;48.046;7.804;2023-05-19T07:37:38;14.00;95.80
19654;DHT22;9975;48.046;7.804;2023-05-19T07:40:05;14.30;94.70
19654;DHT22;9975;48.046;7.804;2023-05-19T07:42:33;14.40;94.10
19654;DHT22;9975;48.046;7.804;2023-05-19T07:44:59;14.70;93.70
19654;DHT22;9975;48.046;7.804;2023-05-19T07:47:25;14.70;93.00
19654;DHT22;9975;48.046;7.804;2023-05-19T07:49:51;14.80;92.70
19654;DHT22;9975;48.046;7.804;2023-05-19T07:52:16;15.00;92.70
19654;DHT22;9975;48.046;7.804;2023-05-19T07:54:43;15.20;92.30
19654;DHT22;9975;48.046;7.804;2023-05-19T07:57:08;15.30;91.50
19654;DHT22;9975;48.046;7.804;2023-05-19T07:59:34;15.50;91.30
19654;DHT22;9975;48.046;7.804;2023-05-19T08:02:00;15.60;91.00
19654;DHT22;9975;48.046;7.804;2023-05-19T08:04:25;15.70;91.00
19654;DHT22;9975;48.046;7.804;2023-05-19T08:06:52;15.70;90.30
19654;DHT22;9975;48.046;7.804;2023-05-19T08:09:18;15.70;90.70
19654;DHT22;9975;48.046;7.804;2023-05-19T08:11:44;15.70;90.20
19654;DHT22;9975;48.046;7.804;2023-05-19T08:14:11;16.10;90.10
19654;DHT22;9975;48.046;7.804;2023-05-19T08:16:37;16.30;89.00
19654;DHT22;9975;48.046;7.804;2023-05-19T08:19:02;16.40;87.00
19654;DHT22;9975;48.046;7.804;2023-05-19T08:21:30;16.10;86.90
19654;DHT22;9975;48.046;7.804;2023-05-19T08:23:59;16.00;88.00
19654;DHT22;9975;48.046;7.804;2023-05-19T08:26:26;16.10;88.30
19654;DHT22;9975;48.046;7.804;2023-05-19T08:28:51;16.10;86.30
19654;DHT22;9975;48.046;7.804;2023-05-19T08:31:17;16.10;85.70
19654;DHT22;9975;48.046;7.804;2023-05-19T08:33:43;16.10;86.50
19654;DHT22;9975;48.046;7.804;2023-05-19T08:36:09;16.40;87.20
19654;DHT22;9975;48.046;7.804;2023-05-19T08:38:34;16.60;84.30
19654;DHT22;9975;48.046;7.804;2023-05-19T08:41:00;16.50;83.10
19654;DHT22;9975;48.046;7.804;2023-05-19T08:43:26;16.40;83.80
19654;DHT22;9975;48.046;7.804;2023-05-19T08:45:52;16.50;84.20
19654;DHT22;9975;48.046;7.804;2023-05-19T08:48:20;16.40;84.10
19654;DHT22;9975;48.046;7.804;2023-05-19T08:51:13;16.40;85.60
19654;DHT22;9975;48.046;7.804;2023-05-19T08:53:47;16.30;84.90
19654;DHT22;9975;48.046;7.804;2023-05-19T08:56:21;16.50;83.70
19654;DHT22;9975;48.046;7.804;2023-05-19T08:58:48;16.70;83.80
19654;DHT22;9975;48.046;7.804;2023-05-19T09:01:15;16.90;83.80
19654;DHT22;9975;48.046;7.804;2023-05-19T09:03:44;17.20;82.10
19654;DHT22;9975;48.046;7.804;2023-05-19T09:06:11;17.20;81.20
19654;DHT22;9975;48.046;7.804;2023-05-19T09:08:38;17.20;81.90
19654;DHT22;9975;48.046;7.804;2023-05-19T09:11:05;17.40;79.70
19654;DHT22;9975;48.046;7.804;2023-05-19T09:13:31;17.30;78.60
19654;DHT22;9975;48.046;7.804;2023-05-19T09:15:56;17.50;80.50
19654;DHT22;9975;48.046;7.804;2023-05-19T09:18:23;17.70;77.00
19654;DHT22;9975;48.046;7.804;2023-05-19T09:20:50;17.70;74.50
19654;DHT22;9975;48.046;7.804;2023-05-19T09:23:26;17.80;75.00
19654;DHT22;9975;48.046;7.804;2023-05-19T09:25:53;17.80;73.50
19654;DHT22;9975;48.046;7.804;2023-05-19T09:28:29;17.80;74.60
19654;DHT22;9975;48.046;7.804;2023-05-19T09:31:09;18.10;73.40
19654;DHT22;9975;48.046;7.804;2023-05-19T09:33:37;17.90;72.00
19654;DHT22;9975;48.046;7.804;2023-05-19T09:36:03;17.90;72.10
19654;DHT22;9975;48.046;7.804;2023-05-19T09:38:31;18.10;72.00
19654;DHT22;9975;48.046;7.804;2023-05-19T09:40:58;18.30;71.40
19654;DHT22;9975;48.046;7.804;2023-05-19T09:43:28;18.30;71.30
19654;DHT22;9975;48.046;7.804;2023-05-19T09:46:04;18.30;71.10
19654;DHT22;9975;48.046;7.804;2023-05-19T09:48:31;18.30;71.00
19654;DHT22;9975;48.046;7.804;2023-05-19T09:50:57;18.50;71.40
19654;DHT22;9975;48.046;7.804;2023-05-19T09:53:24;18.50;69.90
19654;DHT22;9975;48.046;7.804;2023-05-19T09:55:53;18.50;69.90
19654;DHT22;9975;48.046;7.804;2023-05-19T09:58:19;18.50;70.10
19654;DHT22;9975;48.046;7.804;2023-05-19T10:00:46;18.80;69.00
19654;DHT22;9975;48.046;7.804;2023-05-19T10:03:12;18.90;68.80
19654;DHT22;9975;48.046;7.804;2023-05-19T10:05:40;18.90;67.80
19654;DHT22;9975;48.046;7.804;2023-05-19T10:08:06;18.80;66.40
19654;DHT22;9975;48.046;7.804;2023-05-19T10:10:35;18.80;66.30
19654;DHT22;9975;48.046;7.804;2023-05-19T10:13:01;18.70;66.30
19654;DHT22;9975;48.046;7.804;2023-05-19T10:15:28;18.50;65.40
19654;DHT22;9975;48.046;7.804;2023-05-19T10:17:55;18.40;67.00
19654;DHT22;9975;48.046;7.804;2023-05-19T10:20:21;18.40;67.50
19654;DHT22;9975;48.046;7.804;2023-05-19T10:22:47;18.50;67.60
19654;DHT22;9975;48.046;7.804;2023-05-19T10:25:13;18.40;66.50
19654;DHT22;9975;48.046;7.804;2023-05-19T10:28:22;18.30;66.80
19654;DHT22;9975;48.046;7.804;2023-05-19T10:30:46;18.30;66.30
19654;DHT22;9975;48.046;7.804;2023-05-19T10:33:15;18.30;66.70
19654;DHT22;9975;48.046;7.804;2023-05-19T10:39:27;18.80;67.90
19654;DHT22;9975;48.046;7.804;2023-05-19T10:47:05;19.10;66.20
19654;DHT22;9975;48.046;7.804;2023-05-19T10:49:34;19.20;65.80
19654;DHT22;9975;48.046;7.804;2023-05-19T10:52:01;19.40;64.70
19654;DHT22;9975;48.046;7.804;2023-05-19T10:54:42;19.40;59.80
19654;DHT22;9975;48.046;7.804;2023-05-19T10:57:14;19.40;60.20
19654;DHT22;9975;48.046;7.804;2023-05-19T10:59:40;19.50;59.50
19654;DHT22;9975;48.046;7.804;2023-05-19T11:02:09;19.60;59.00
19654;DHT22;9975;48.046;7.804;2023-05-19T11:04:53;19.70;57.20
19654;DHT22;9975;48.046;7.804;2023-05-19T11:07:22;19.90;57.20
19654;DHT22;9975;48.046;7.804;2023-05-19T11:09:52;20.00;57.10
19654;DHT22;9975;48.046;7.804;2023-05-19T11:12:22;20.20;57.20
19654;DHT22;9975;48.046;7.804;2023-05-19T11:14:51;20.30;57.00
19654;DHT22;9975;48.046;7.804;2023-05-19T11:17:18;20.40;55.80
19654;DHT22;9975;48.046;7.804;2023-05-19T11:19:53;20.40;54.90
19654;DHT22;9975;48.046;7.804;2023-05-19T11:22:22;20.40;55.10
19654;DHT22;9975;48.046;7.804;2023-05-19T11:24:49;20.50;55.10
19654;DHT22;9975;48.046;7.804;2023-05-19T11:27:33;20.50;54.40
19654;DHT22;9975;48.046;7.804;2023-05-19T11:30:09;20.50;53.60
19654;DHT22;9975;48.046;7.804;2023-05-19T11:32:47;20.60;55.10
19654;DHT22;9975;48.046;7.804;2023-05-19T11:35:12;20.60;53.50
19654;DHT22;9975;48.046;7.804;2023-05-19T11:37:39;20.60;53.60
19654;DHT22;9975;48.046;7.804;2023-05-19T11:40:07;20.70;53.70
19654;DHT22;9975;48.046;7.804;2023-05-19T11:42:34;20.90;52.50
19654;DHT22;9975;48.046;7.804;2023-05-19T11:45:02;20.90;51.30
19654;DHT22;9975;48.046;7.804;2023-05-19T11:47:29;20.90;52.40
19654;DHT22;9975;48.046;7.804;2023-05-19T11:49:55;20.90;51.80
19654;DHT22;9975;48.046;7.804;2023-05-19T11:52:24;20.90;50.80
19654;DHT22;9975;48.046;7.804;2023-05-19T11:54:50;20.90;51.80
19654;DHT22;9975;48.046;7.804;2023-05-19T11:57:17;21.10;51.00
19654;DHT22;9975;48.046;7.804;2023-05-19T11:59:42;21.20;50.00
19654;DHT22;9975;48.046;7.804;2023-05-19T12:04:41;21.60;51.00
19654;DHT22;9975;48.046;7.804;2023-05-19T12:07:07;21.70;49.40
19654;DHT22;9975;48.046;7.804;2023-05-19T12:09:35;21.90;48.80
19654;DHT22;9975;48.046;7.804;2023-05-19T12:12:01;22.00;50.00
19654;DHT22;9975;48.046;7.804;2023-05-19T12:14:29;22.10;48.00
19654;DHT22;9975;48.046;7.804;2023-05-19T12:16:55;21.90;47.90
19654;DHT22;9975;48.046;7.804;2023-05-19T12:19:24;21.80;48.00
19654;DHT22;9975;48.046;7.804;2023-05-19T12:21:51;21.90;48.00
19654;DHT22;9975;48.046;7.804;2023-05-19T12:24:17;22.00;47.00
19654;DHT22;9975;48.046;7.804;2023-05-19T12:26:43;22.00;47.70
19654;DHT22;9975;48.046;7.804;2023-05-19T12:29:09;21.80;47.80
19654;DHT22;9975;48.046;7.804;2023-05-19T12:31:34;21.70;47.10
19654;DHT22;9975;48.046;7.804;2023-05-19T12:34:00;21.70;47.30
19654;DHT22;9975;48.046;7.804;2023-05-19T12:36:26;21.70;48.00
19654;DHT22;9975;48.046;7.804;2023-05-19T12:38:56;21.70;48.70
19654;DHT22;9975;48.046;7.804;2023-05-19T12:41:24;21.80;48.00
19654;DHT22;9975;48.046;7.804;2023-05-19T12:43:49;22.00;48.90
19654;DHT22;9975;48.046;7.804;2023-05-19T12:46:17;21.90;47.00
19654;DHT22;9975;48.046;7.804;2023-05-19T12:48:44;21.80;48.00
19654;DHT22;9975;48.046;7.804;2023-05-19T12:51:15;21.90;47.20
19654;DHT22;9975;48.046;7.804;2023-05-19T12:53:41;21.90;47.40
19654;DHT22;9975;48.046;7.804;2023-05-19T12:56:14;21.90;47.00
19654;DHT22;9975;48.046;7.804;2023-05-19T12:58:40;22.20;46.80
19654;DHT22;9975;48.046;7.804;2023-05-19T13:01:06;22.50;47.70
19654;DHT22;9975;48.046;7.804;2023-05-19T13:03:39;23.10;46.40
19654;DHT22;9975;48.046;7.804;2023-05-19T13:06:06;23.50;45.50
19654;DHT22;9975;48.046;7.804;2023-05-19T13:08:32;23.90;43.60
19654;DHT22;9975;48.046;7.804;2023-05-19T13:10:58;24.00;43.80
19654;DHT22;9975;48.046;7.804;2023-05-19T13:13:23;23.90;44.00
19654;DHT22;9975;48.046;7.804;2023-05-19T13:15:49;24.10;43.30
19654;DHT22;9975;48.046;7.804;2023-05-19T13:18:15;24.30;40.00
19654;DHT22;9975;48.046;7.804;2023-05-19T13:20:42;24.30;41.50
19654;DHT22;9975;48.046;7.804;2023-05-19T13:23:09;24.10;40.20
19654;DHT22;9975;48.046;7.804;2023-05-19T13:25:35;23.50;40.30
19654;DHT22;9975;48.046;7.804;2023-05-19T13:28:02;22.90;42.30
19654;DHT22;9975;48.046;7.804;2023-05-19T13:30:34;22.90;42.90
19654;DHT22;9975;48.046;7.804;2023-05-19T13:33:00;23.00;42.80
19654;DHT22;9975;48.046;7.804;2023-05-19T13:35:25;22.90;42.40
19654;DHT22;9975;48.046;7.804;2023-05-19T13:37:51;22.80;44.00
19654;DHT22;9975;48.046;7.804;2023-05-19T13:40:17;23.00;42.70
19654;DHT22;9975;48.046;7.804;2023-05-19T13:42:43;23.00;42.30
19654;DHT22;9975;48.046;7.804;2023-05-19T13:45:09;22.70;43.80
19654;DHT22;9975;48.046;7.804;2023-05-19T13:47:36;22.50;42.20
19654;DHT22;9975;48.046;7.804;2023-05-19T13:50:03;22.10;42.70
19654;DHT22;9975;48.046;7.804;2023-05-19T13:52:29;22.00;45.00
19654;DHT22;9975;48.046;7.804;2023-05-19T13:54:54;22.10;44.60
19654;DHT22;9975;48.046;7.804;2023-05-19T13:57:22;21.90;43.60
19654;DHT22;9975;48.046;7.804;2023-05-19T13:59:47;21.60;44.20
19654;DHT22;9975;48.046;7.804;2023-05-19T14:02:13;21.50;45.20
19654;DHT22;9975;48.046;7.804;2023-05-19T14:04:39;21.40;45.60
19654;DHT22;9975;48.046;7.804;2023-05-19T14:07:06;21.60;44.60
19654;DHT22;9975;48.046;7.804;2023-05-19T14:09:32;21.40;44.90
19654;DHT22;9975;48.046;7.804;2023-05-19T14:11:58;21.30;44.90
19654;DHT22;9975;48.046;7.804;2023-05-19T14:14:24;21.00;45.50
19654;DHT22;9975;48.046;7.804;2023-05-19T14:16:50;20.60;46.00
19654;DHT22;9975;48.046;7.804;2023-05-19T14:19:16;20.40;46.70
19654;DHT22;9975;48.046;7.804;2023-05-19T14:21:41;20.30;47.70
19654;DHT22;9975;48.046;7.804;2023-05-19T14:24:07;20.20;47.10
19654;DHT22;9975;48.046;7.804;2023-05-19T14:26:33;20.30;46.40
19654;DHT22;9975;48.046;7.804;2023-05-19T14:28:58;20.20;47.20
19654;DHT22;9975;48.046;7.804;2023-05-19T14:31:24;20.20;46.70
19654;DHT22;9975;48.046;7.804;2023-05-19T14:33:50;20.10;47.30
19654;DHT22;9975;48.046;7.804;2023-05-19T14:36:16;20.10;46.90
19654;DHT22;9975;48.046;7.804;2023-05-19T14:38:42;20.10;47.30
19654;DHT22;9975;48.046;7.804;2023-05-19T14:41:07;20.10;47.00
19654;DHT22;9975;48.046;7.804;2023-05-19T14:43:33;20.20;47.10
19654;DHT22;9975;48.046;7.804;2023-05-19T14:45:59;20.10;47.30
19654;DHT22;9975;48.046;7.804;2023-05-19T14:48:24;20.00;48.20
19654;DHT22;9975;48.046;7.804;2023-05-19T14:50:50;20.00;48.00
19654;DHT22;9975;48.046;7.804;2023-05-19T14:53:16;20.10;48.40
19654;DHT22;9975;48.046;7.804;2023-05-19T14:55:42;20.30;47.70
19654;DHT22;9975;48.046;7.804;2023-05-19T14:58:08;20.20;48.00
19654;DHT22;9975;48.046;7.804;2023-05-19T15:00:34;20.00;47.90
19654;DHT22;9975;48.046;7.804;2023-05-19T15:03:00;19.90;47.90
19654;DHT22;9975;48.046;7.804;2023-05-19T15:05:25;19.80;48.50
19654;DHT22;9975;48.046;7.804;2023-05-19T15:07:51;19.70;48.40
19654;DHT22;9975;48.046;7.804;2023-05-19T15:10:17;19.70;49.00
19654;DHT22;9975;48.046;7.804;2023-05-19T15:12:46;19.80;49.20
19654;DHT22;9975;48.046;7.804;2023-05-19T15:15:11;19.80;49.20
19654;DHT22;9975;48.046;7.804;2023-05-19T15:17:37;19.90;48.90
19654;DHT22;9975;48.046;7.804;2023-05-19T15:20:03;19.60;48.40
19654;DHT22;9975;48.046;7.804;2023-05-19T15:22:29;19.40;49.40
19654;DHT22;9975;48.046;7.804;2023-05-19T15:24:54;19.40;49.80
19654;DHT22;9975;48.046;7.804;2023-05-19T15:27:20;19.40;49.90
19654;DHT22;9975;48.046;7.804;2023-05-19T15:29:46;19.40;50.40
19654;DHT22;9975;48.046;7.804;2023-05-19T15:32:12;19.40;50.40
19654;DHT22;9975;48.046;7.804;2023-05-19T15:34:37;19.30;50.20
19654;DHT22;9975;48.046;7.804;2023-05-19T15:37:03;19.30;50.40
19654;DHT22;9975;48.046;7.804;2023-05-19T15:39:29;19.10;50.10
19654;DHT22;9975;48.046;7.804;2023-05-19T15:41:55;19.10;49.90
19654;DHT22;9975;48.046;7.804;2023-05-19T15:44:21;19.00;50.50
19654;DHT22;9975;48.046;7.804;2023-05-19T15:46:46;18.90;50.20
19654;DHT22;9975;48.046;7.804;2023-05-19T15:49:12;18.90;50.20
19654;DHT22;9975;48.046;7.804;2023-05-19T15:51:38;18.90;50.20
19654;DHT22;9975;48.046;7.804;2023-05-19T15:54:03;18.80;50.20
19654;DHT22;9975;48.046;7.804;2023-05-19T15:56:29;18.70;50.10
19654;DHT22;9975;48.046;7.804;2023-05-19T15:58:55;18.60;50.60
19654;DHT22;9975;48.046;7.804;2023-05-19T16:01:21;18.40;50.40
19654;DHT22;9975;48.046;7.804;2023-05-19T16:03:46;18.40;50.90
19654;DHT22;9975;48.046;7.804;2023-05-19T16:06:12;19.90;51.60
19654;DHT22;9975;48.046;7.804;2023-05-19T16:08:38;18.30;50.40
19654;DHT22;9975;48.046;7.804;2023-05-19T16:11:05;18.30;51.10
19654;DHT22;9975;48.046;7.804;2023-05-19T16:13:31;18.20;50.90
19654;DHT22;9975;48.046;7.804;2023-05-19T16:15:58;18.10;50.60
19654;DHT22;9975;48.046;7.804;2023-05-19T16:18:23;18.20;51.10
19654;DHT22;9975;48.046;7.804;2023-05-19T16:20:49;18.20;50.90
19654;DHT22;9975;48.046;7.804;2023-05-19T16:23:15;18.10;51.10
19654;DHT22;9975;48.046;7.804;2023-05-19T16:25:41;17.90;51.20
19654;DHT22;9975;48.046;7.804;2023-05-19T16:28:07;17.90;51.40
19654;DHT22;9975;48.046;7.804;2023-05-19T16:30:32;17.80;51.50
19654;DHT22;9975;48.046;7.804;2023-05-19T16:32:58;17.80;51.80
19654;DHT22;9975;48.046;7.804;2023-05-19T16:35:23;17.70;51.90
19654;DHT22;9975;48.046;7.804;2023-05-19T16:37:51;17.60;52.00
19654;DHT22;9975;48.046;7.804;2023-05-19T16:40:17;17.50;52.10
19654;DHT22;9975;48.046;7.804;2023-05-19T16:42:44;17.40;52.00
19654;DHT22;9975;48.046;7.804;2023-05-19T16:45:09;17.40;52.80
19654;DHT22;9975;48.046;7.804;2023-05-19T16:47:35;17.30;52.50
19654;DHT22;9975;48.046;7.804;2023-05-19T16:50:02;17.40;52.40
19654;DHT22;9975;48.046;7.804;2023-05-19T16:52:28;17.50;52.40
19654;DHT22;9975;48.046;7.804;2023-05-19T16:54:53;17.50;52.70
19654;DHT22;9975;48.046;7.804;2023-05-19T16:57:19;17.40;53.10
19654;DHT22;9975;48.046;7.804;2023-05-19T16:59:45;17.30;53.10
19654;DHT22;9975;48.046;7.804;2023-05-19T17:02:11;17.20;53.40
19654;DHT22;9975;48.046;7.804;2023-05-19T17:04:36;17.20;53.70
19654;DHT22;9975;48.046;7.804;2023-05-19T17:07:02;17.20;54.30
19654;DHT22;9975;48.046;7.804;2023-05-19T17:09:28;17.20;53.40
19654;DHT22;9975;48.046;7.804;2023-05-19T17:11:54;17.20;53.30
19654;DHT22;9975;48.046;7.804;2023-05-19T17:14:20;17.10;53.20
19654;DHT22;9975;48.046;7.804;2023-05-19T17:16:46;17.10;53.50
19654;DHT22;9975;48.046;7.804;2023-05-19T17:19:12;17.00;53.20
19654;DHT22;9975;48.046;7.804;2023-05-19T17:21:38;16.90;53.60
19654;DHT22;9975;48.046;7.804;2023-05-19T17:24:04;16.90;53.50
19654;DHT22;9975;48.046;7.804;2023-05-19T17:26:29;16.80;53.40
19654;DHT22;9975;48.046;7.804;2023-05-19T17:28:55;16.80;53.70
19654;DHT22;9975;48.046;7.804;2023-05-19T17:31:21;16.70;54.20
19654;DHT22;9975;48.046;7.804;2023-05-19T17:33:46;16.80;54.50
19654;DHT22;9975;48.046;7.804;2023-05-19T17:36:13;16.80;54.50
19654;DHT22;9975;48.046;7.804;2023-05-19T17:38:38;16.80;54.10
19654;DHT22;9975;48.046;7.804;2023-05-19T17:41:05;16.80;54.20
19654;DHT22;9975;48.046;7.804;2023-05-19T17:43:38;16.80;54.50
19654;DHT22;9975;48.046;7.804;2023-05-19T17:46:04;16.80;55.10
19654;DHT22;9975;48.046;7.804;2023-05-19T17:48:30;16.70;54.60
19654;DHT22;9975;48.046;7.804;2023-05-19T17:50:56;16.70;54.70
19654;DHT22;9975;48.046;7.804;2023-05-19T17:53:22;16.60;54.70